Sagehen Creek Weather observations

Data are for observation ending at time listed.
 Day   Time    Ave.   Ave.  Ave.  Vector   Max.   Stn.    Total    Solar   Ave.  
  of    of     Air    Rel.  Wind   Wind    Wind   Baro.  Precip.   Rad.    Soil  
Year   Day     Temp.  Hum.  Speed  Dir.    Gust   Pres.                    Temp. 
2014   (PST)    F      %     mph   deg.    mph     mb.     in.     W/m2     F   
------------------------------------------------------------------------------
 260    8:30   69.0    32    3.6   289      8.3   835.4   12.58     485    999.0
 260    8:40   69.1    31    3.4   282      7.9   835.2   12.58     510    999.0
 260    8:50   69.9    31    2.7   290      6.1   835.2   12.58     542    999.0
 260    9:00   70.1    30    3.4   275      8.0   835.2   12.58     550    999.0
 260    9:10   70.0    31    3.4   264      7.8   835.4   12.58     560    999.0
 260    9:20   70.3    31    3.8   285     11.0   835.4   12.58     590    999.0
 260    9:30   70.7    30    3.7   171      9.9   835.4   12.58     528    999.0
 260    9:40   70.8    28    3.0   165     10.1   835.4   12.58     578    999.0
 260    9:50   71.6    28    3.5   132      9.5   835.4   12.58     640    999.0
 260   10:00   71.7    27    3.4   135      9.2   835.3   12.57     685    999.0
 260   10:10   73.0    27    3.3   150      7.7   835.2   12.57     709    999.0
 260   10:20   72.8    25    3.8   227      9.2   835.1   12.57     714    999.0
 260   10:30   72.5    25    3.7   180      8.6   835.1   12.57     684    999.0
 260   10:40   73.2    24    2.9   169      8.0   835.0   12.57     688    999.0
 260   10:50   73.5    24    4.2   140     13.2   835.1   12.57     700    999.0
 260   11:00   73.2    26    2.6   222      6.4   835.2   12.57     670    999.0
 260   11:10   74.3    24    2.5   259      5.5   835.1   12.57     688    999.0
 260   11:20   73.9    25    2.5   271      6.0   835.1   12.57     633    999.0
 260   11:30   73.5    25    3.5   279     10.3   835.1   12.57     629    999.0
 260   11:40   72.7    24    3.5   276      8.4   834.9   12.57     600    999.0
 260   11:50   73.1    24    3.3   278     10.2   834.8   12.57     591    999.0
 260   12:00   72.6    26    3.3   256      9.2   834.6   12.57     486    999.0
 260   12:10   72.0    27    2.9   210      8.7   834.9   12.57     502    999.0
 260   12:20   71.2    26    4.3   269     10.4   834.9   12.57     489    999.0
 260   12:30   71.3    27    2.4   280      8.3   834.9   12.57     472    999.0
 260   12:40   71.9    26    2.9   272     10.3   834.8   12.57     476    999.0
 260   12:50   71.0    28    3.0   225      5.9   834.7   12.57     448    999.0
 260   13:00   70.5    28    2.9   266      6.9   834.6   12.57     404    999.0
 260   13:10   70.3    29    2.7   203      7.0   834.8   12.57     402    999.0
 260   13:20   70.7    29    2.4   218     13.2   834.5   12.57     441    999.0
 260   13:30   70.6    29    2.0   253      4.8   834.3   12.57     371    999.0
 260   13:40   69.8    30    2.6   239      6.9   834.6   12.57     315    999.0
 260   13:50   69.2    28    2.7   242      5.9   834.5   12.57     351    999.0
 260   14:00   68.7    29    3.0   237     10.3   834.5   12.57     315    999.0
 260   14:10   68.3    30    2.3   216      6.7   834.1   12.57     226    999.0
 260   14:20   67.8    31    2.7   250      7.9   834.3   12.57     254    999.0
 260   14:30   67.7    31    2.4   235      6.4   834.4   12.57     250    999.0
 260   14:40   67.8    30    2.2   260      5.3   834.3   12.57     230    999.0
 260   14:50   66.7    32    2.7   257      5.9   834.0   12.57      81    999.0
 260   15:00   65.4    32    2.4   247      5.9   833.8   12.58      29    999.0
 260   15:10   64.7    33    2.0   230      6.9   834.1   12.58      29    999.0
 260   15:20   64.3    34    2.2   246      5.3   834.1   12.58      36    999.0
 260   15:30   64.1    33    2.2   237      5.5   834.0   12.58      31    999.0
 260   15:40   64.2    32    2.2   272      5.3   833.7   12.58      24    999.0
 260   15:50   64.3    32    2.7   266      6.0   833.7   12.58      27    999.0
 260   16:00   64.6    32    2.7   265      5.9   833.7   12.58      22    999.0
 260   16:10   63.9    33    1.7   254      3.0   833.8   12.58      17    999.0
 260   16:20   63.5    33    2.1   255      6.2   833.8   12.58      17    999.0
 260   16:30   63.8    32    2.3   266      8.0   833.8   12.58      22    999.0
 260   16:40   63.5    33    1.7   242      7.4   833.4   12.58      22    999.0
 260   16:50   63.3    34    1.2   238      3.9   833.6   12.58      14    999.0
 260   17:00   63.0    34    2.1   269      6.1   833.7   12.58      14    999.0
 260   17:10   62.7    35    1.5   264      4.2   833.5   12.58      11    999.0
 260   17:20   62.7    35    2.0   262      4.3   833.4   12.58       7    999.0
 260   17:30   62.6    36    1.9   256      5.6   833.4   12.58       5    999.0
 260   17:40   62.4    36    1.9   248      5.6   833.7   12.58       5    999.0
 260   17:50   62.2    37    2.1   243      3.8   833.6   12.58       4    999.0
 260   18:00   62.0    37    1.9   254      3.6   833.6   12.58       3    999.0
 260   18:10   61.9    38    1.9   254      3.6   833.6   12.58       2    999.0
 260   18:20   61.8    38    2.3   288      7.4   833.5   12.58       0    999.0
 260   18:30   61.6    38    1.8   251      4.5   833.4   12.58       0    999.0
 260   18:40   61.1    39    1.9   270      3.7   833.5   12.58       0    999.0
 260   18:50   61.2    38    2.0   265      4.7   833.4   12.58       0    999.0
 260   19:00   61.7    37    2.3   284      6.6   833.3   12.58       0    999.0
 260   19:10   62.5    35    2.5   269      9.9   833.5   12.58       0    999.0
 260   19:20   63.0    35    2.4   293      7.8   833.5   12.58       0    999.0
 260   19:30   63.2    35    2.2   284      7.2   833.6   12.58       0    999.0
 260   19:40   63.5    33    3.7   279     10.0   833.7   12.58       0    999.0
 260   19:50   63.8    33    2.9   281     10.4   833.7   12.58       0    999.0
 260   20:00   63.6    33    2.7   279      7.1   833.6   12.58       0    999.0
 260   20:10   63.2    34    1.7   279      5.8   833.6   12.58       0    999.0
 260   20:20   62.9    34    2.9   283      7.9   833.6   12.58       0    999.0
 260   20:30   63.2    33    3.3   274      7.7   833.6   12.58       0    999.0
 260   20:40   63.1    34    3.1   278      9.3   833.4   12.58       0    999.0
 260   20:50   63.1    35    3.7   283      7.8   833.4   12.58       0    999.0
 260   21:00   62.9    37    3.6   269     10.0   833.4   12.58       0    999.0
 260   21:10   62.5    39    3.5   287      9.5   833.5   12.58       0    999.0
 260   21:20   62.0    40    3.6   288      8.6   833.4   12.58       0    999.0
 260   21:30   62.0    41    3.6   280      8.4   833.4   12.58       0    999.0
 260   21:40   62.0    41    3.9   275      8.7   833.5   12.58       0    999.0
 260   21:50   61.9    42    3.5   272      7.8   833.4   12.58       0    999.0
 260   22:00   61.4    43    2.5   258      5.0   833.4   12.58       0    999.0
 260   22:10   61.3    44    3.6   285      7.9   833.3   12.58       0    999.0
 260   22:20   61.0    44    3.0   260      7.1   833.3   12.58       0    999.0
 260   22:30   60.8    45    3.7   254     10.9   833.3   12.58       0    999.0
 260   22:40   60.6    46    3.0   221      7.3   833.1   12.58       0    999.0
 260   22:50   59.8    48    4.0   260     10.5   833.2   12.58       0    999.0
 260   23:00   60.0    47    2.9   276      7.8   833.2   12.58       0    999.0
 260   23:10   59.5    49    3.2   260      7.6   833.0   12.58       0    999.0
 260   23:20   59.3    49    3.9   203      9.0   833.1   12.58       0    999.0
 260   23:30   59.2    50    3.1   253      7.1   833.2   12.58       0    999.0
 260   23:40   58.8    51    3.0   273      9.7   832.8   12.58       0    999.0
 260   23:50   57.8    53    2.5   261      6.7   832.8   12.58       0    999.0
 261    0:00   56.9    56    3.0   263      6.5   832.8   12.58       0    999.0
 261    0:10   56.4    58    2.9   256      6.0   833.0   12.58       0    999.0
 261    0:20   55.8    59    3.1   271      6.1   833.2   12.58       0    999.0
 261    0:30   55.6    60    3.4   262      6.9   833.4   12.58       0    999.0
 261    0:40   55.6    60    3.5   254      8.9   833.4   12.58       0    999.0
 261    0:50   55.0    62    2.9   250      8.5   833.5   12.58       0    999.0
 261    1:00   54.9    63    2.7   254      7.0   833.5   12.58       0    999.0
 261    1:10   54.3    65    2.6   248      5.2   833.1   12.58       0    999.0
 261    1:20   54.6    65    3.5   283      7.9   833.1   12.58       0    999.0
 261    1:30   54.7    64    3.1   266      7.5   833.2   12.58       0    999.0
 261    1:40   54.3    64    2.9   264      7.5   833.6   12.58       0    999.0
 261    1:50   54.2    64    2.8   262      7.5   833.4   12.58       0    999.0
 261    2:00   54.0    64    2.1   263      3.5   833.3   12.58       0    999.0
 261    2:10   53.7    64    2.8   281      6.8   832.9   12.58       0    999.0
 261    2:20   54.0    63    2.6   256      5.7   833.1   12.58       0    999.0
 261    2:30   53.9    64    2.7   241      6.9   833.3   12.58       0    999.0
 261    2:40   53.8    64    2.3   277      5.1   833.2   12.58       0    999.0
 261    2:50   53.7    64    2.2   275      5.1   833.0   12.58       0    999.0
 261    3:00   53.7    65    2.1   273      7.3   832.9   12.58       0    999.0
 261    3:10   53.7    65    1.8   251      5.0   833.1   12.58       0    999.0
 261    3:20   54.5    63    2.5   230      8.4   833.1   12.58       0    999.0
 261    3:30   54.8    62    2.7   282      6.0   833.1   12.58       0    999.0
 261    3:40   55.5    61    2.4   290      5.9   833.0   12.58       0    999.0
 261    3:50   55.6    60    3.3   285      7.4   833.0   12.58       0    999.0
 261    4:00   55.5    60    2.2   279      5.0   833.0   12.58       0    999.0
 261    4:10   55.4    60    2.7   286      6.2   833.1   12.58       0    999.0
 261    4:20   55.3    60    1.8   256      4.9   833.0   12.58       0    999.0
 261    4:30   54.9    61    1.5   217      5.6   832.9   12.58       0    999.0
 261    4:40   54.1    63    1.1   270      2.5   832.9   12.58       0    999.0
 261    4:50   52.6    66    1.5   277      2.6   833.0   12.58       0    999.0
 261    5:00   52.4    66    1.5   274      4.7   833.2   12.58       0    999.0
 261    5:10   53.8    62    2.3   248      8.8   833.2   12.58       0    999.0
 261    5:20   53.6    63    2.7   280      8.0   833.2   12.58       0    999.0
 261    5:30   53.7    64    1.1   226      3.2   833.1   12.58       0    999.0
 261    5:40   53.1    65    1.5   280      5.4   833.5   12.58       1    999.0
 261    5:50   53.1    66    1.7   253      5.0   833.5   12.58       3    999.0
 261    6:00   53.3    66    1.9   271      6.6   833.4   12.58      19    999.0
 261    6:10   53.9    65    1.4   250      4.6   833.3   12.58      25    999.0
 261    6:20   54.0    65    2.6   287     10.4   833.5   12.58      28    999.0
 261    6:30   54.8    63    3.6   272     11.2   833.8   12.58      41    999.0
 261    6:40   55.0    64    2.7   199      7.4   833.6   12.58      60    999.0
 261    6:50   55.4    63    3.2   289      8.5   833.5   12.58      80    999.0
 261    7:00   55.8    62    3.3   272      7.5   833.4   12.58     108    999.0
 261    7:10   56.1    62    3.9   260      9.0   834.0   12.58     142    999.0
 261    7:20   56.7    61    3.2   199     10.0   834.0   12.58     193    999.0
 261    7:30   57.2    61    4.0   173     10.6   834.0   12.57     249    999.0
 261    7:40   57.9    60    3.0   130      9.0   833.9   12.57     269    999.0
 261    7:50   57.6    61    3.1   234      7.9   833.8   12.57     137    999.0
 261    8:00   57.1    61    4.2   160      9.5   833.7   12.57     182    999.0
 261    8:10   57.7    60    4.1   176      8.2   833.7   12.57     355    999.0
 261    8:20   59.3    57    3.3   142      7.6   833.7   12.57     423    999.0

Return to Sagehen Creek graphs page.


Western Regional Climate Center,wrcc@dri.edu